Charter Quote
Worldwide +1-877-727-2538 Call
Select Language Lang
SAFETY RELIABILITY EXPERIENCE

Private Jet Charter Services - Zhangxiao (ZBYC)

Paramount Business Jets offers private jet charter flights and luxury airliner charters to and from Zhangxiao.

AIRPORT INFORMATION
ICAOZBYC
IATAYCU
LOCATIONYuncheng, China
FACILITY TYPEAIRPORT

At Paramount Business Jets you can hire chartered private jets to and from Zhangxiao with as little as 4 hours of notice. All flights booked via Paramount Business Jets are operated by certified direct air carriers that meet and exceed the FAA part 135 and 121 protocol or a foreign equivalent safety authority. Furthermore, Paramount Business Jets subscribes to ARGUS for their third party safety checks of operators, aircraft, and crews prior each and every flight to and from Zhangxiao and worldwide.

  • Quote a trip using Zhangxiao or call us 24/7 - 365 days a year at +1-877-727-2538.
Questions? Call +1-877-727-2538

METAR Weather Data at Zhangxiao, ZBYC, YCU

STATIONZBYC
OBSERVEDThu Sep 25, 05:00 UTC
NOWMon Jul 22, 09:51 UTC
AGE42268:51 hr ago
WINDSSE at 13 mph
VISIBILITY0.6 mile
CONDITIONShaze
METARZBYC 250500Z 15006MPS 110V180 0400 R26/P2000U HZ NSC 24/13 Q1014 NOSIG

Call us on +1-877-727-2538 (24 Hours) to Hire a Private Jet or Get a Quick Quote.

Find Airports Near any Location

Processing
...